createdAt,value
2018-09-15T00:02:20.607Z,15.46
2018-09-15T00:04:56.704Z,15.17
2018-09-15T00:07:33.390Z,15.11
2018-09-15T00:10:09.573Z,15.03
2018-09-15T00:12:37.967Z,14.92
2018-09-15T00:15:05.512Z,15.05
2018-09-15T00:17:33.055Z,14.92
2018-09-15T00:20:00.646Z,14.80
2018-09-15T00:22:28.176Z,14.82
2018-09-15T00:24:55.705Z,15.07
2018-09-15T00:27:23.273Z,14.88
2018-09-15T00:29:50.831Z,14.80
2018-09-15T00:32:18.397Z,14.87
2018-09-15T00:34:45.921Z,14.74
2018-09-15T00:37:13.492Z,14.84
2018-09-15T00:39:41.031Z,14.53
2018-09-15T00:42:08.595Z,14.54
2018-09-15T00:44:36.197Z,14.51
2018-09-15T00:47:03.745Z,14.29
2018-09-15T00:49:31.286Z,14.46
2018-09-15T00:51:58.849Z,14.33
2018-09-15T00:54:26.422Z,14.34
2018-09-15T00:56:53.930Z,14.46
2018-09-15T00:59:21.509Z,14.59
2018-09-15T01:01:50.295Z,14.35
2018-09-15T01:04:17.861Z,14.39
2018-09-15T01:06:45.384Z,14.22
2018-09-15T01:09:17.026Z,14.48
2018-09-15T01:11:44.546Z,14.37
2018-09-15T01:14:12.166Z,14.47
2018-09-15T01:16:39.671Z,14.43
2018-09-15T01:19:07.416Z,14.69
2018-09-15T01:21:34.986Z,14.59
2018-09-15T01:24:02.533Z,14.80
2018-09-15T01:26:30.115Z,14.85
2018-09-15T01:28:59.705Z,14.66
2018-09-15T01:31:27.301Z,14.86
2018-09-15T01:34:00.493Z,14.64
2018-09-15T01:36:28.016Z,14.27
2018-09-15T01:38:55.599Z,14.43
2018-09-15T01:41:23.144Z,14.64
2018-09-15T01:43:54.626Z,14.46
2018-09-15T01:46:22.193Z,14.59
2018-09-15T01:48:49.770Z,14.66
2018-09-15T01:51:17.292Z,14.62
2018-09-15T01:53:44.885Z,14.68
2018-09-15T01:56:12.419Z,14.71
2018-09-15T01:58:39.948Z,14.58
2018-09-15T02:01:07.533Z,14.77
2018-09-15T02:03:35.116Z,14.46
2018-09-15T02:06:02.680Z,14.74
2018-09-15T02:08:30.241Z,14.59
2018-09-15T02:10:57.764Z,14.78
2018-09-15T02:13:25.362Z,14.84
2018-09-15T02:15:52.949Z,14.81
2018-09-15T02:18:20.508Z,14.92
2018-09-15T02:20:52.636Z,14.92
2018-09-15T02:23:20.186Z,14.55
2018-09-15T02:25:47.723Z,14.58
2018-09-15T02:28:15.277Z,14.40
2018-09-15T02:30:42.794Z,14.27
2018-09-15T02:33:10.368Z,14.45
2018-09-15T02:35:37.879Z,14.25
2018-09-15T02:38:05.437Z,14.21
2018-09-15T02:40:32.951Z,14.24
2018-09-15T02:43:00.512Z,14.50
2018-09-15T02:45:28.124Z,14.52
2018-09-15T02:47:55.692Z,14.58
2018-09-15T02:50:23.216Z,14.48
2018-09-15T02:52:50.819Z,14.33
2018-09-15T02:55:22.614Z,14.23
2018-09-15T02:57:50.203Z,14.27
2018-09-15T03:00:17.782Z,14.00
2018-09-15T03:02:45.353Z,14.00
2018-09-15T03:05:14.900Z,14.23
2018-09-15T03:07:42.519Z,14.03
2018-09-15T03:10:10.027Z,14.06
2018-09-15T03:12:44.922Z,14.26
2018-09-15T03:15:12.475Z,14.11
2018-09-15T03:17:40.026Z,14.27
2018-09-15T03:20:07.586Z,14.27
2018-09-15T03:22:35.127Z,14.23
2018-09-15T03:25:02.687Z,13.73
2018-09-15T03:27:30.225Z,13.98
2018-09-15T03:29:57.793Z,14.05
2018-09-15T03:32:25.323Z,14.04
2018-09-15T03:34:53.007Z,13.90
2018-09-15T03:37:20.584Z,13.99
2018-09-15T03:39:48.117Z,13.84
2018-09-15T03:42:15.705Z,13.92
2018-09-15T03:44:43.277Z,13.66
2018-09-15T03:47:10.857Z,13.86
2018-09-15T03:49:38.401Z,13.48
2018-09-15T03:52:05.982Z,13.76
2018-09-15T03:54:33.534Z,13.97
2018-09-15T03:57:01.105Z,13.96
2018-09-15T03:59:28.648Z,14.25
2018-09-15T04:01:57.167Z,14.28
2018-09-15T04:04:24.728Z,14.14
2018-09-15T04:06:52.401Z,14.31
2018-09-15T04:09:23.684Z,14.29
2018-09-15T04:11:51.210Z,14.21
2018-09-15T04:14:18.802Z,14.16
2018-09-15T04:16:46.335Z,14.15
2018-09-15T04:19:13.936Z,13.94
2018-09-15T04:21:41.577Z,13.88
2018-09-15T04:24:09.159Z,13.84
2018-09-15T04:26:36.698Z,13.72
2018-09-15T04:29:04.471Z,13.98
2018-09-15T04:31:32.047Z,13.95
2018-09-15T04:33:59.591Z,13.97
2018-09-15T04:36:27.183Z,14.00
2018-09-15T04:38:54.704Z,13.96
2018-09-15T04:41:22.263Z,13.96
2018-09-15T04:43:49.830Z,14.06
2018-09-15T04:46:17.409Z,13.89
2018-09-15T04:48:45.002Z,13.77
2018-09-15T04:51:12.545Z,13.93
2018-09-15T04:53:46.131Z,13.83
2018-09-15T04:56:13.690Z,13.84
2018-09-15T04:58:41.283Z,13.79
2018-09-15T05:01:08.815Z,14.19
2018-09-15T05:03:36.429Z,13.90
2018-09-15T05:06:03.997Z,13.76
2018-09-15T05:08:31.502Z,13.58
2018-09-15T05:10:59.088Z,13.72
2018-09-15T05:13:26.752Z,13.58
2018-09-15T05:15:54.338Z,13.87
2018-09-15T05:18:22.035Z,13.87
2018-09-15T05:20:49.614Z,13.74
2018-09-15T05:23:17.219Z,13.92
2018-09-15T05:25:44.802Z,14.02
2018-09-15T05:28:12.382Z,13.68
2018-09-15T05:30:40.016Z,13.51
2018-09-15T05:33:07.618Z,13.76
2018-09-15T05:35:35.152Z,13.67
2018-09-15T05:38:02.899Z,13.87
2018-09-15T05:40:30.407Z,13.78
2018-09-15T05:42:57.950Z,13.88
2018-09-15T05:45:25.552Z,13.73
2018-09-15T05:47:53.080Z,13.78
2018-09-15T05:50:20.634Z,13.78
2018-09-15T05:52:48.208Z,13.60
2018-09-15T05:55:16.867Z,13.65
2018-09-15T05:57:44.443Z,13.96
2018-09-15T06:00:11.959Z,13.76
2018-09-15T06:02:39.630Z,13.63
2018-09-15T06:05:07.215Z,13.53
2018-09-15T06:07:34.742Z,13.63
2018-09-15T06:10:02.348Z,13.62
2018-09-15T06:12:29.877Z,13.77
2018-09-15T06:14:57.434Z,13.77
2018-09-15T06:17:24.989Z,13.72
2018-09-15T06:19:52.527Z,13.71
2018-09-15T06:22:20.131Z,13.75
2018-09-15T06:24:47.639Z,13.88
2018-09-15T06:27:15.229Z,13.85
2018-09-15T06:29:42.768Z,13.82
2018-09-15T06:32:10.354Z,13.96
2018-09-15T06:34:38.144Z,13.95
2018-09-15T06:37:05.673Z,13.88
2018-09-15T06:39:33.262Z,13.97
2018-09-15T06:42:01.085Z,13.87
2018-09-15T06:44:29.901Z,13.79
2018-09-15T06:46:57.953Z,13.86
2018-09-15T06:49:25.834Z,14.06
2018-09-15T06:51:54.921Z,14.04
2018-09-15T06:54:24.665Z,14.16
2018-09-15T06:56:52.327Z,14.08
2018-09-15T06:59:19.984Z,14.11
2018-09-15T07:01:47.692Z,13.93
2018-09-15T07:04:19.040Z,14.10
2018-09-15T07:06:46.620Z,14.07
2018-09-15T07:09:14.438Z,14.12
2018-09-15T07:11:42.261Z,14.20
2018-09-15T07:14:11.927Z,14.19
2018-09-15T07:16:41.630Z,14.31
2018-09-15T07:19:09.340Z,14.33
2018-09-15T07:21:37.403Z,14.34
2018-09-15T07:24:04.997Z,14.47
2018-09-15T07:26:32.731Z,14.65
2018-09-15T07:29:00.309Z,14.43
2018-09-15T07:31:31.271Z,14.68
2018-09-15T07:33:58.823Z,14.70
2018-09-15T07:36:26.406Z,14.80
2018-09-15T07:38:59.733Z,14.83
2018-09-15T07:41:27.463Z,14.86
2018-09-15T07:43:55.033Z,14.92
2018-09-15T07:46:23.713Z,14.89
2018-09-15T07:48:51.352Z,14.64
2018-09-15T07:51:20.055Z,14.84
2018-09-15T07:53:48.839Z,15.02
2018-09-15T07:56:20.153Z,15.22
2018-09-15T07:58:47.741Z,15.23
2018-09-15T08:01:17.234Z,15.15
2018-09-15T08:03:44.822Z,15.32
2018-09-15T08:06:12.397Z,15.51
2018-09-15T08:08:39.987Z,15.49
2018-09-15T08:11:07.810Z,15.54
2018-09-15T08:13:35.365Z,15.57
2018-09-15T08:16:17.876Z,15.49
2018-09-15T08:18:45.458Z,15.44
2018-09-15T08:21:13.025Z,15.56
2018-09-15T08:23:41.002Z,15.53
2018-09-15T08:26:11.865Z,15.74
2018-09-15T08:28:39.437Z,15.82
2018-09-15T08:31:11.709Z,15.75
2018-09-15T08:33:39.762Z,15.74
2018-09-15T08:36:14.136Z,16.02
2018-09-15T08:38:42.370Z,16.05
2018-09-15T08:41:10.063Z,16.11
2018-09-15T08:43:37.676Z,16.31
2018-09-15T08:46:15.925Z,16.27
2018-09-15T08:48:44.378Z,16.48
2018-09-15T08:51:12.570Z,16.44
2018-09-15T08:53:40.393Z,16.44
2018-09-15T08:56:07.987Z,16.21
2018-09-15T08:58:36.039Z,16.01
2018-09-15T09:01:04.936Z,16.09
2018-09-15T09:03:34.474Z,16.03
2018-09-15T09:06:03.273Z,15.87
2018-09-15T09:08:30.894Z,15.92
2018-09-15T09:10:58.449Z,15.90
2018-09-15T09:13:27.548Z,15.71
2018-09-15T09:15:55.304Z,16.10
2018-09-15T09:18:26.689Z,15.80
2018-09-15T09:20:54.258Z,15.85
2018-09-15T09:23:21.836Z,15.97
2018-09-15T09:25:49.466Z,15.88
2018-09-15T09:28:17.035Z,16.16
2018-09-15T09:30:44.618Z,16.19
2018-09-15T09:33:16.854Z,16.35
2018-09-15T09:35:44.469Z,16.24
2018-09-15T09:38:19.433Z,16.54
2018-09-15T09:40:46.982Z,16.35
2018-09-15T09:43:14.548Z,16.63
2018-09-15T09:45:42.116Z,16.72
2018-09-15T09:48:09.659Z,16.77
2018-09-15T09:50:37.202Z,16.80
2018-09-15T09:53:08.522Z,16.76
2018-09-15T09:55:36.093Z,16.53
2018-09-15T09:58:03.647Z,16.57
2018-09-15T10:00:32.059Z,16.61
2018-09-15T10:02:59.623Z,16.69
2018-09-15T10:05:27.158Z,16.61
2018-09-15T10:07:54.743Z,16.67
2018-09-15T10:10:22.267Z,16.97
2018-09-15T10:12:50.998Z,16.85
2018-09-15T10:15:18.541Z,17.01
2018-09-15T10:17:46.128Z,16.83
2018-09-15T10:20:13.709Z,16.83
2018-09-15T10:22:41.292Z,16.59
2018-09-15T10:25:08.873Z,16.77
2018-09-15T10:27:36.409Z,16.65
2018-09-15T10:30:04.003Z,16.63
2018-09-15T10:32:32.226Z,16.63
2018-09-15T10:34:59.947Z,16.67
2018-09-15T10:37:27.544Z,16.75
2018-09-15T10:39:55.069Z,16.98
2018-09-15T10:42:22.626Z,17.02
2018-09-15T10:44:51.289Z,17.06
2018-09-15T10:47:18.823Z,17.29
2018-09-15T10:49:46.400Z,17.27
2018-09-15T10:52:13.984Z,17.45
2018-09-15T10:54:41.543Z,17.47
2018-09-15T10:57:09.094Z,17.36
2018-09-15T10:59:36.665Z,17.43
2018-09-15T11:02:08.415Z,17.59
2018-09-15T11:04:36.001Z,17.58
2018-09-15T11:07:03.535Z,17.72
2018-09-15T11:09:31.068Z,17.59
2018-09-15T11:11:58.607Z,17.62
2018-09-15T11:14:26.141Z,17.51
2018-09-15T11:16:53.691Z,17.28
2018-09-15T11:19:21.227Z,17.31
2018-09-15T11:21:48.779Z,17.26
2018-09-15T11:24:16.304Z,17.59
2018-09-15T11:26:43.880Z,17.79
2018-09-15T11:29:11.449Z,17.96
2018-09-15T11:31:38.999Z,17.87
2018-09-15T11:34:06.606Z,17.84
2018-09-15T11:36:34.149Z,18.08
2018-09-15T11:39:01.680Z,18.40
2018-09-15T11:41:29.271Z,18.55
2018-09-15T11:43:56.817Z,18.47
2018-09-15T11:46:24.346Z,18.59
2018-09-15T11:48:51.998Z,18.61
2018-09-15T11:51:19.604Z,18.66
2018-09-15T11:53:47.188Z,18.80
2018-09-15T11:56:14.753Z,19.00
2018-09-15T11:58:42.291Z,18.83
2018-09-15T12:01:09.898Z,18.75
2018-09-15T12:03:37.428Z,18.67
2018-09-15T12:06:04.974Z,18.49
2018-09-15T12:08:32.556Z,18.58
2018-09-15T12:11:00.136Z,18.64
2018-09-15T12:13:27.669Z,18.61
2018-09-15T12:15:56.147Z,18.73
2018-09-15T12:18:23.719Z,18.84
2018-09-15T12:20:51.316Z,18.63
2018-09-15T12:23:18.853Z,18.66
2018-09-15T12:25:46.417Z,18.59
2018-09-15T12:28:13.945Z,18.46
2018-09-15T12:30:41.500Z,18.50
2018-09-15T12:33:09.040Z,18.55
2018-09-15T12:35:36.606Z,18.58
2018-09-15T12:38:04.265Z,18.67
2018-09-15T12:40:31.802Z,18.34
2018-09-15T12:42:59.381Z,18.56
2018-09-15T12:45:26.894Z,18.34
2018-09-15T12:47:54.491Z,18.57
2018-09-15T12:50:22.002Z,18.39
2018-09-15T12:52:49.584Z,18.30
2018-09-15T12:55:17.127Z,18.58
2018-09-15T12:57:44.800Z,18.70
2018-09-15T13:00:12.249Z,18.68
2018-09-15T13:02:46.468Z,18.76
2018-09-15T13:05:13.993Z,18.84
2018-09-15T13:07:41.551Z,18.89
2018-09-15T13:10:09.077Z,18.82
2018-09-15T13:12:36.652Z,18.70
2018-09-15T13:15:04.159Z,18.52
2018-09-15T13:17:31.744Z,18.58
2018-09-15T13:19:59.273Z,18.66
2018-09-15T13:22:26.833Z,18.52
2018-09-15T13:24:54.393Z,18.62
2018-09-15T13:27:21.928Z,18.70
2018-09-15T13:29:49.534Z,18.51
2018-09-15T13:32:17.051Z,18.54
2018-09-15T13:34:44.646Z,18.65
2018-09-15T13:37:12.178Z,18.43
2018-09-15T13:39:39.957Z,18.43
2018-09-15T13:42:07.484Z,18.45
2018-09-15T13:44:36.408Z,18.76
2018-09-15T13:47:03.938Z,18.69
2018-09-15T13:49:31.527Z,18.88
2018-09-15T13:51:59.068Z,18.32
2018-09-15T13:54:26.606Z,18.57
2018-09-15T13:56:54.169Z,18.75
2018-09-15T13:59:21.691Z,18.76
2018-09-15T14:01:49.286Z,18.53
2018-09-15T14:04:16.879Z,18.50
2018-09-15T14:06:44.401Z,18.84
2018-09-15T14:09:11.937Z,18.70
2018-09-15T14:11:39.498Z,18.89
2018-09-15T14:14:07.077Z,18.70
2018-09-15T14:16:34.684Z,18.72
2018-09-15T14:19:02.157Z,18.88
2018-09-15T14:21:29.733Z,18.84
2018-09-15T14:23:57.555Z,18.65
2018-09-15T14:26:25.109Z,18.89
2018-09-15T14:28:52.679Z,18.64
2018-09-15T14:31:20.267Z,18.54
2018-09-15T14:33:47.837Z,18.72
2018-09-15T14:36:15.423Z,18.96
2018-09-15T14:38:42.975Z,18.71
2018-09-15T14:41:10.559Z,18.78
2018-09-15T14:43:39.087Z,18.97
2018-09-15T14:46:06.674Z,18.95
2018-09-15T14:48:34.248Z,19.08
2018-09-15T14:51:01.816Z,18.83
2018-09-15T14:53:29.344Z,18.84
2018-09-15T14:56:00.358Z,18.74
2018-09-15T14:58:27.899Z,18.86
2018-09-15T15:00:55.460Z,19.06
2018-09-15T15:03:23.011Z,19.16
2018-09-15T15:05:50.607Z,19.22
2018-09-15T15:08:24.399Z,19.05
2018-09-15T15:10:51.969Z,19.01
2018-09-15T15:13:19.553Z,18.89
2018-09-15T15:15:47.077Z,18.87
2018-09-15T15:18:14.678Z,19.13
2018-09-15T15:20:42.267Z,19.11
2018-09-15T15:23:09.826Z,19.17
2018-09-15T15:25:42.214Z,19.21
2018-09-15T15:28:09.757Z,19.31
2018-09-15T15:30:37.286Z,19.38
2018-09-15T15:33:04.857Z,19.30
2018-09-15T15:35:32.497Z,19.38
2018-09-15T15:38:00.028Z,19.42
2018-09-15T15:40:27.561Z,19.23
2018-09-15T15:42:55.092Z,19.07
2018-09-15T15:45:22.676Z,19.30
2018-09-15T15:47:50.232Z,19.06
2018-09-15T15:50:17.757Z,19.09
2018-09-15T15:52:45.353Z,19.31
2018-09-15T15:55:12.935Z,19.38
2018-09-15T15:57:40.461Z,19.19
2018-09-15T16:00:08.013Z,19.31
2018-09-15T16:02:35.545Z,19.33
2018-09-15T16:05:03.132Z,19.17
2018-09-15T16:07:30.716Z,19.41
2018-09-15T16:09:58.213Z,19.46
2018-09-15T16:12:25.772Z,19.54
2018-09-15T16:14:53.328Z,19.49
2018-09-15T16:17:20.961Z,19.36
2018-09-15T16:19:48.487Z,19.48
2018-09-15T16:22:16.048Z,19.55
2018-09-15T16:24:43.621Z,19.60
2018-09-15T16:27:11.229Z,19.45
2018-09-15T16:29:38.777Z,19.53
2018-09-15T16:32:06.358Z,19.47
2018-09-15T16:34:33.918Z,19.60
2018-09-15T16:37:01.498Z,19.64
2018-09-15T16:39:29.039Z,19.65
2018-09-15T16:41:56.636Z,19.61
2018-09-15T16:44:24.163Z,19.30
2018-09-15T16:46:51.784Z,19.17
2018-09-15T16:49:19.457Z,19.31
2018-09-15T16:51:46.965Z,19.23
2018-09-15T16:54:14.533Z,19.29
2018-09-15T16:56:42.084Z,19.16
2018-09-15T16:59:09.671Z,19.06
2018-09-15T17:01:37.209Z,18.97
2018-09-15T17:04:04.809Z,18.85
2018-09-15T17:06:32.322Z,18.97
2018-09-15T17:08:59.853Z,18.84
2018-09-15T17:11:27.407Z,18.81
2018-09-15T17:13:56.204Z,18.90
2018-09-15T17:16:23.796Z,18.71
2018-09-15T17:18:51.352Z,18.57
2018-09-15T17:21:18.864Z,18.52
2018-09-15T17:23:46.518Z,18.49
2018-09-15T17:26:14.038Z,18.59
2018-09-15T17:28:41.575Z,18.38
2018-09-15T17:31:09.170Z,18.26
2018-09-15T17:33:40.768Z,18.19
2018-09-15T17:36:08.383Z,18.11
2018-09-15T17:38:35.930Z,17.94
2018-09-15T17:41:03.502Z,18.04
2018-09-15T17:43:31.138Z,17.83
2018-09-15T17:45:58.712Z,17.66
2018-09-15T17:48:26.235Z,17.75
2018-09-15T17:50:53.793Z,17.60
2018-09-15T17:53:21.381Z,17.60
2018-09-15T17:55:48.913Z,17.50
2018-09-15T17:58:16.512Z,17.67
2018-09-15T18:00:44.054Z,17.65
2018-09-15T18:03:11.631Z,17.49
2018-09-15T18:05:39.196Z,17.61
2018-09-15T18:08:06.736Z,17.34
2018-09-15T18:10:34.324Z,17.56
2018-09-15T18:13:01.872Z,17.26
2018-09-15T18:15:29.446Z,17.51
2018-09-15T18:17:57.005Z,17.26
2018-09-15T18:20:24.613Z,17.19
2018-09-15T18:22:52.173Z,17.38
2018-09-15T18:25:19.747Z,17.32
2018-09-15T18:27:47.313Z,17.39
2018-09-15T18:30:17.044Z,17.18
2018-09-15T18:32:44.681Z,17.27
2018-09-15T18:35:16.985Z,17.01
2018-09-15T18:37:44.643Z,16.91
2018-09-15T18:40:12.306Z,16.84
2018-09-15T18:42:41.129Z,16.83
2018-09-15T18:45:08.851Z,16.93
2018-09-15T18:47:36.446Z,16.85
2018-09-15T18:50:04.173Z,16.65
2018-09-15T18:52:32.065Z,16.75
2018-09-15T18:54:59.969Z,16.41
2018-09-15T18:57:27.631Z,16.54
2018-09-15T18:59:55.388Z,16.47
2018-09-15T19:02:22.926Z,16.41
2018-09-15T19:04:50.527Z,16.41
2018-09-15T19:07:18.351Z,16.34
2018-09-15T19:09:46.161Z,16.52
2018-09-15T19:12:13.715Z,16.55
2018-09-15T19:14:41.361Z,16.49
2018-09-15T19:17:08.899Z,16.24
2018-09-15T19:19:36.483Z,16.39
2018-09-15T19:22:04.016Z,16.31
2018-09-15T19:24:32.053Z,16.16
2018-09-15T19:26:59.653Z,16.41
2018-09-15T19:29:27.220Z,16.30
2018-09-15T19:31:54.819Z,16.17
2018-09-15T19:34:24.386Z,16.20
2018-09-15T19:36:51.973Z,16.24
2018-09-15T19:39:19.523Z,16.27
2018-09-15T19:41:47.050Z,16.27
2018-09-15T19:44:14.621Z,16.27
2018-09-15T19:46:42.132Z,16.26
2018-09-15T19:49:09.727Z,16.35
2018-09-15T19:51:37.257Z,16.42
2018-09-15T19:54:04.818Z,16.25
2018-09-15T19:56:32.451Z,16.37
2018-09-15T19:59:00.258Z,16.14
2018-09-15T20:01:27.950Z,16.05
2018-09-15T20:03:55.496Z,16.02
2018-09-15T20:06:23.020Z,16.02
2018-09-15T20:08:50.603Z,16.03
2018-09-15T20:11:18.133Z,16.00
2018-09-15T20:13:45.665Z,15.92
2018-09-15T20:16:12.845Z,15.92
2018-09-15T20:18:39.921Z,15.94
2018-09-15T20:21:06.957Z,15.87
2018-09-15T20:23:35.178Z,15.84
2018-09-15T20:26:04.174Z,15.85
2018-09-15T20:28:32.878Z,15.94
2018-09-15T20:31:00.442Z,16.00
2018-09-15T20:33:28.580Z,15.75
2018-09-15T20:35:56.221Z,15.65
2018-09-15T20:38:24.760Z,15.81
2018-09-15T20:40:52.350Z,15.97
2018-09-15T20:43:19.914Z,15.87
2018-09-15T20:45:48.682Z,15.84
2018-09-15T20:48:16.216Z,15.88
2018-09-15T20:50:43.789Z,15.93
2018-09-15T20:53:11.358Z,15.95
2018-09-15T20:55:38.956Z,15.92
2018-09-15T20:58:08.481Z,15.93
2018-09-15T21:00:36.232Z,15.98
2018-09-15T21:03:03.751Z,15.91
2018-09-15T21:05:31.270Z,15.65
2018-09-15T21:07:58.842Z,15.64
2018-09-15T21:10:26.415Z,15.58
2018-09-15T21:12:54.182Z,15.79
2018-09-15T21:15:21.834Z,15.60
2018-09-15T21:17:50.592Z,15.67
2018-09-15T21:20:18.204Z,15.48
2018-09-15T21:22:45.746Z,15.54
2018-09-15T21:25:13.262Z,15.46
2018-09-15T21:27:40.843Z,15.50
2018-09-15T21:30:08.539Z,15.59
2018-09-15T21:32:36.088Z,15.64
2018-09-15T21:35:04.690Z,15.53
2018-09-15T21:37:32.285Z,15.53
2018-09-15T21:39:59.882Z,15.36
2018-09-15T21:42:27.409Z,15.35
2018-09-15T21:44:56.932Z,15.50
2018-09-15T21:47:25.660Z,15.35
2018-09-15T21:49:53.381Z,15.58
2018-09-15T21:52:22.106Z,15.65
2018-09-15T21:54:49.684Z,15.62
2018-09-15T21:57:17.266Z,15.78
2018-09-15T21:59:44.891Z,15.96
2018-09-15T22:02:12.429Z,16.12
2018-09-15T22:04:40.924Z,15.92
2018-09-15T22:07:08.461Z,15.81
2018-09-15T22:09:36.131Z,15.60
2018-09-15T22:12:03.625Z,15.59
2018-09-15T22:14:32.090Z,15.50
2018-09-15T22:16:59.624Z,15.61
2018-09-15T22:19:27.167Z,15.71
2018-09-15T22:21:54.962Z,15.93
2018-09-15T22:24:24.554Z,16.10
2018-09-15T22:26:52.134Z,16.18
2018-09-15T22:29:19.675Z,16.24
2018-09-15T22:31:48.219Z,16.03
2018-09-15T22:34:15.878Z,16.18
2018-09-15T22:36:46.777Z,15.93
2018-09-15T22:39:14.360Z,15.90
2018-09-15T22:41:42.012Z,16.03
2018-09-15T22:44:09.597Z,15.84
2018-09-15T22:46:37.181Z,15.81
2018-09-15T22:49:04.710Z,15.95
2018-09-15T22:51:32.232Z,15.94
2018-09-15T22:54:05.442Z,15.74
2018-09-15T22:56:33.105Z,15.73
2018-09-15T22:59:00.843Z,15.77
2018-09-15T23:01:28.478Z,15.80
2018-09-15T23:03:56.050Z,15.94
2018-09-15T23:06:30.403Z,15.77
2018-09-15T23:08:57.964Z,15.67
2018-09-15T23:11:27.517Z,15.56
2018-09-15T23:13:55.077Z,15.21
2018-09-15T23:16:22.640Z,15.58
2018-09-15T23:18:50.177Z,15.61
2018-09-15T23:21:17.747Z,15.61
2018-09-15T23:23:45.322Z,15.29
2018-09-15T23:26:12.856Z,15.44
2018-09-15T23:28:40.428Z,15.59
2018-09-15T23:31:07.986Z,15.31
2018-09-15T23:33:35.541Z,15.33
2018-09-15T23:36:03.121Z,15.41
2018-09-15T23:38:31.888Z,15.40
2018-09-15T23:40:59.434Z,15.13
2018-09-15T23:43:28.346Z,14.98
2018-09-15T23:45:55.967Z,14.72
2018-09-15T23:48:23.500Z,14.76
2018-09-15T23:50:53.035Z,14.69
2018-09-15T23:53:20.618Z,14.78
2018-09-15T23:55:48.138Z,14.79
2018-09-15T23:58:15.694Z,15.04
